sensor_id;sensor_type;location;lat;lon;timestamp;P1;durP1;ratioP1;P2;durP2;ratioP2
34481;SDS011;20720;48.886;9.388;2023-03-31T00:00:25;6.07;;;1.02;;
34481;SDS011;20720;48.886;9.388;2023-03-31T00:02:51;4.43;;;1.10;;
34481;SDS011;20720;48.886;9.388;2023-03-31T00:05:18;4.60;;;1.08;;
34481;SDS011;20720;48.886;9.388;2023-03-31T00:07:45;5.15;;;0.85;;
34481;SDS011;20720;48.886;9.388;2023-03-31T00:10:12;3.63;;;0.90;;
34481;SDS011;20720;48.886;9.388;2023-03-31T00:12:38;5.78;;;1.33;;
34481;SDS011;20720;48.886;9.388;2023-03-31T00:15:03;5.13;;;0.90;;
34481;SDS011;20720;48.886;9.388;2023-03-31T00:17:29;4.65;;;1.20;;
34481;SDS011;20720;48.886;9.388;2023-03-31T00:19:58;5.72;;;1.13;;
34481;SDS011;20720;48.886;9.388;2023-03-31T00:22:25;5.13;;;1.15;;
34481;SDS011;20720;48.886;9.388;2023-03-31T00:24:53;5.30;;;1.00;;
34481;SDS011;20720;48.886;9.388;2023-03-31T00:27:19;4.38;;;1.00;;
34481;SDS011;20720;48.886;9.388;2023-03-31T00:29:44;4.72;;;1.20;;
34481;SDS011;20720;48.886;9.388;2023-03-31T00:32:10;5.93;;;1.33;;
34481;SDS011;20720;48.886;9.388;2023-03-31T00:34:35;2.90;;;1.05;;
34481;SDS011;20720;48.886;9.388;2023-03-31T00:37:01;5.43;;;1.20;;
34481;SDS011;20720;48.886;9.388;2023-03-31T00:39:27;4.40;;;1.05;;
34481;SDS011;20720;48.886;9.388;2023-03-31T00:42:00;3.08;;;1.00;;
34481;SDS011;20720;48.886;9.388;2023-03-31T00:44:27;4.80;;;1.17;;
34481;SDS011;20720;48.886;9.388;2023-03-31T00:49:26;4.45;;;1.10;;
34481;SDS011;20720;48.886;9.388;2023-03-31T00:52:03;4.85;;;1.10;;
34481;SDS011;20720;48.886;9.388;2023-03-31T00:54:37;3.97;;;1.17;;
34481;SDS011;20720;48.886;9.388;2023-03-31T00:57:04;3.53;;;1.10;;
34481;SDS011;20720;48.886;9.388;2023-03-31T00:59:33;4.55;;;0.93;;
34481;SDS011;20720;48.886;9.388;2023-03-31T01:02:02;3.58;;;0.90;;
34481;SDS011;20720;48.886;9.388;2023-03-31T01:04:33;6.22;;;1.10;;
34481;SDS011;20720;48.886;9.388;2023-03-31T01:07:36;3.50;;;1.08;;
34481;SDS011;20720;48.886;9.388;2023-03-31T01:09:56;4.18;;;1.23;;
34481;SDS011;20720;48.886;9.388;2023-03-31T01:12:24;6.55;;;1.10;;
34481;SDS011;20720;48.886;9.388;2023-03-31T01:14:50;7.03;;;1.63;;
34481;SDS011;20720;48.886;9.388;2023-03-31T01:17:17;5.47;;;1.27;;
34481;SDS011;20720;48.886;9.388;2023-03-31T01:28:49;10.27;;;1.30;;
34481;SDS011;20720;48.886;9.388;2023-03-31T01:42:12;5.97;;;1.50;;
34481;SDS011;20720;48.886;9.388;2023-03-31T01:47:46;6.05;;;1.77;;
34481;SDS011;20720;48.886;9.388;2023-03-31T01:50:28;3.97;;;1.05;;
34481;SDS011;20720;48.886;9.388;2023-03-31T01:53:20;5.85;;;1.35;;
34481;SDS011;20720;48.886;9.388;2023-03-31T01:58:49;11.82;;;1.50;;
34481;SDS011;20720;48.886;9.388;2023-03-31T02:01:22;3.58;;;1.20;;
34481;SDS011;20720;48.886;9.388;2023-03-31T02:04:15;3.78;;;1.00;;
34481;SDS011;20720;48.886;9.388;2023-03-31T02:06:45;6.93;;;1.50;;
34481;SDS011;20720;48.886;9.388;2023-03-31T02:09:19;6.75;;;1.35;;
34481;SDS011;20720;48.886;9.388;2023-03-31T02:11:49;8.20;;;1.35;;
34481;SDS011;20720;48.886;9.388;2023-03-31T02:14:17;5.00;;;1.42;;
34481;SDS011;20720;48.886;9.388;2023-03-31T02:16:48;4.55;;;1.40;;
34481;SDS011;20720;48.886;9.388;2023-03-31T02:19:16;7.20;;;2.22;;
34481;SDS011;20720;48.886;9.388;2023-03-31T02:21:46;7.30;;;1.30;;
34481;SDS011;20720;48.886;9.388;2023-03-31T02:24:13;4.30;;;1.38;;
34481;SDS011;20720;48.886;9.388;2023-03-31T02:27:14;3.55;;;1.10;;
34481;SDS011;20720;48.886;9.388;2023-03-31T02:29:36;5.25;;;1.20;;
34481;SDS011;20720;48.886;9.388;2023-03-31T02:32:10;8.88;;;1.70;;
34481;SDS011;20720;48.886;9.388;2023-03-31T02:34:40;3.80;;;1.08;;
34481;SDS011;20720;48.886;9.388;2023-03-31T02:37:06;5.72;;;1.50;;
34481;SDS011;20720;48.886;9.388;2023-03-31T02:39:33;6.68;;;1.20;;
34481;SDS011;20720;48.886;9.388;2023-03-31T02:42:00;4.28;;;1.23;;
34481;SDS011;20720;48.886;9.388;2023-03-31T02:44:31;3.85;;;1.27;;
34481;SDS011;20720;48.886;9.388;2023-03-31T02:46:57;7.63;;;1.48;;
34481;SDS011;20720;48.886;9.388;2023-03-31T02:49:23;7.22;;;1.42;;
34481;SDS011;20720;48.886;9.388;2023-03-31T02:57:44;6.07;;;1.55;;
34481;SDS011;20720;48.886;9.388;2023-03-31T03:00:20;7.20;;;1.77;;
34481;SDS011;20720;48.886;9.388;2023-03-31T03:12:01;6.15;;;1.38;;
34481;SDS011;20720;48.886;9.388;2023-03-31T03:14:52;4.00;;;1.13;;
34481;SDS011;20720;48.886;9.388;2023-03-31T03:20:20;5.05;;;1.33;;
34481;SDS011;20720;48.886;9.388;2023-03-31T03:22:46;7.15;;;1.73;;
34481;SDS011;20720;48.886;9.388;2023-03-31T03:25:12;6.03;;;1.55;;
34481;SDS011;20720;48.886;9.388;2023-03-31T03:27:38;5.82;;;1.30;;
34481;SDS011;20720;48.886;9.388;2023-03-31T03:30:05;5.47;;;1.63;;
34481;SDS011;20720;48.886;9.388;2023-03-31T03:32:32;6.50;;;1.33;;
34481;SDS011;20720;48.886;9.388;2023-03-31T03:35:01;5.40;;;1.67;;
34481;SDS011;20720;48.886;9.388;2023-03-31T03:37:28;7.10;;;1.30;;
34481;SDS011;20720;48.886;9.388;2023-03-31T03:39:54;5.45;;;1.67;;
34481;SDS011;20720;48.886;9.388;2023-03-31T03:42:19;7.97;;;1.98;;
34481;SDS011;20720;48.886;9.388;2023-03-31T03:44:45;6.13;;;1.50;;
34481;SDS011;20720;48.886;9.388;2023-03-31T03:47:10;6.60;;;1.83;;
34481;SDS011;20720;48.886;9.388;2023-03-31T03:49:35;5.15;;;1.60;;
34481;SDS011;20720;48.886;9.388;2023-03-31T03:52:00;3.70;;;1.15;;
34481;SDS011;20720;48.886;9.388;2023-03-31T03:54:26;5.40;;;1.40;;
34481;SDS011;20720;48.886;9.388;2023-03-31T03:56:51;4.72;;;1.55;;
34481;SDS011;20720;48.886;9.388;2023-03-31T03:59:16;5.05;;;1.45;;
34481;SDS011;20720;48.886;9.388;2023-03-31T04:01:41;5.13;;;1.70;;
34481;SDS011;20720;48.886;9.388;2023-03-31T04:04:07;4.95;;;1.50;;
34481;SDS011;20720;48.886;9.388;2023-03-31T04:06:32;3.47;;;1.23;;
34481;SDS011;20720;48.886;9.388;2023-03-31T04:08:58;4.95;;;1.63;;
34481;SDS011;20720;48.886;9.388;2023-03-31T04:11:23;7.93;;;1.80;;
34481;SDS011;20720;48.886;9.388;2023-03-31T04:13:48;5.55;;;1.85;;
34481;SDS011;20720;48.886;9.388;2023-03-31T04:16:14;10.98;;;4.72;;
34481;SDS011;20720;48.886;9.388;2023-03-31T04:18:40;9.98;;;3.83;;
34481;SDS011;20720;48.886;9.388;2023-03-31T04:21:07;6.50;;;2.67;;
34481;SDS011;20720;48.886;9.388;2023-03-31T04:23:36;8.52;;;2.03;;
34481;SDS011;20720;48.886;9.388;2023-03-31T04:26:09;3.92;;;1.63;;
34481;SDS011;20720;48.886;9.388;2023-03-31T04:28:35;6.45;;;2.03;;
34481;SDS011;20720;48.886;9.388;2023-03-31T04:31:01;5.80;;;1.95;;
34481;SDS011;20720;48.886;9.388;2023-03-31T04:33:30;5.80;;;1.55;;
34481;SDS011;20720;48.886;9.388;2023-03-31T04:35:58;8.30;;;1.98;;
34481;SDS011;20720;48.886;9.388;2023-03-31T04:38:30;6.05;;;1.45;;
34481;SDS011;20720;48.886;9.388;2023-03-31T04:40:57;5.07;;;1.60;;
34481;SDS011;20720;48.886;9.388;2023-03-31T04:43:23;6.25;;;1.70;;
34481;SDS011;20720;48.886;9.388;2023-03-31T04:45:48;6.65;;;1.92;;
34481;SDS011;20720;48.886;9.388;2023-03-31T04:48:13;5.85;;;1.58;;
34481;SDS011;20720;48.886;9.388;2023-03-31T04:50:39;8.20;;;2.63;;
34481;SDS011;20720;48.886;9.388;2023-03-31T04:53:04;5.53;;;1.77;;
34481;SDS011;20720;48.886;9.388;2023-03-31T04:55:30;6.45;;;2.25;;
34481;SDS011;20720;48.886;9.388;2023-03-31T04:57:56;8.05;;;1.80;;
34481;SDS011;20720;48.886;9.388;2023-03-31T05:00:22;6.65;;;2.03;;
34481;SDS011;20720;48.886;9.388;2023-03-31T05:02:47;11.30;;;2.17;;
34481;SDS011;20720;48.886;9.388;2023-03-31T05:05:12;6.15;;;2.58;;
34481;SDS011;20720;48.886;9.388;2023-03-31T05:07:38;6.85;;;2.70;;
34481;SDS011;20720;48.886;9.388;2023-03-31T05:10:03;5.80;;;2.05;;
34481;SDS011;20720;48.886;9.388;2023-03-31T05:12:33;7.00;;;2.15;;
34481;SDS011;20720;48.886;9.388;2023-03-31T05:15:00;7.40;;;2.35;;
34481;SDS011;20720;48.886;9.388;2023-03-31T05:17:25;6.07;;;2.17;;
34481;SDS011;20720;48.886;9.388;2023-03-31T05:19:51;5.13;;;2.05;;
34481;SDS011;20720;48.886;9.388;2023-03-31T05:22:16;6.45;;;2.50;;
34481;SDS011;20720;48.886;9.388;2023-03-31T05:24:44;10.10;;;2.88;;
34481;SDS011;20720;48.886;9.388;2023-03-31T05:27:10;10.40;;;4.47;;
34481;SDS011;20720;48.886;9.388;2023-03-31T05:29:35;13.15;;;4.72;;
34481;SDS011;20720;48.886;9.388;2023-03-31T05:32:01;7.28;;;2.45;;
34481;SDS011;20720;48.886;9.388;2023-03-31T05:34:27;5.22;;;2.63;;
34481;SDS011;20720;48.886;9.388;2023-03-31T05:36:52;7.20;;;2.58;;
34481;SDS011;20720;48.886;9.388;2023-03-31T05:39:17;6.10;;;2.05;;
34481;SDS011;20720;48.886;9.388;2023-03-31T05:41:43;6.00;;;2.45;;
34481;SDS011;20720;48.886;9.388;2023-03-31T05:44:08;7.50;;;2.78;;
34481;SDS011;20720;48.886;9.388;2023-03-31T05:46:33;6.85;;;2.22;;
34481;SDS011;20720;48.886;9.388;2023-03-31T05:48:59;10.95;;;2.25;;
34481;SDS011;20720;48.886;9.388;2023-03-31T05:51:24;7.80;;;2.50;;
34481;SDS011;20720;48.886;9.388;2023-03-31T05:53:49;9.60;;;2.70;;
34481;SDS011;20720;48.886;9.388;2023-03-31T05:56:15;6.80;;;2.25;;
34481;SDS011;20720;48.886;9.388;2023-03-31T05:58:40;8.07;;;2.60;;
34481;SDS011;20720;48.886;9.388;2023-03-31T06:01:09;8.20;;;2.58;;
34481;SDS011;20720;48.886;9.388;2023-03-31T06:03:43;8.50;;;2.90;;
34481;SDS011;20720;48.886;9.388;2023-03-31T06:06:09;7.28;;;3.17;;
34481;SDS011;20720;48.886;9.388;2023-03-31T06:08:36;10.23;;;3.40;;
34481;SDS011;20720;48.886;9.388;2023-03-31T06:11:06;9.20;;;3.20;;
34481;SDS011;20720;48.886;9.388;2023-03-31T06:13:33;7.70;;;2.90;;
34481;SDS011;20720;48.886;9.388;2023-03-31T06:15:59;11.70;;;3.08;;
34481;SDS011;20720;48.886;9.388;2023-03-31T06:18:28;7.38;;;3.65;;
34481;SDS011;20720;48.886;9.388;2023-03-31T06:20:54;9.40;;;2.85;;
34481;SDS011;20720;48.886;9.388;2023-03-31T06:23:20;11.18;;;3.45;;
34481;SDS011;20720;48.886;9.388;2023-03-31T06:25:46;9.65;;;3.38;;
34481;SDS011;20720;48.886;9.388;2023-03-31T06:28:12;14.07;;;3.95;;
34481;SDS011;20720;48.886;9.388;2023-03-31T06:30:38;9.20;;;3.47;;
34481;SDS011;20720;48.886;9.388;2023-03-31T06:33:03;8.75;;;3.08;;
34481;SDS011;20720;48.886;9.388;2023-03-31T06:35:29;7.90;;;3.45;;
34481;SDS011;20720;48.886;9.388;2023-03-31T06:37:54;12.13;;;3.42;;
34481;SDS011;20720;48.886;9.388;2023-03-31T06:40:19;7.40;;;3.20;;
34481;SDS011;20720;48.886;9.388;2023-03-31T06:42:45;10.15;;;3.40;;
34481;SDS011;20720;48.886;9.388;2023-03-31T06:45:10;6.20;;;3.70;;
34481;SDS011;20720;48.886;9.388;2023-03-31T06:47:35;7.97;;;3.60;;
34481;SDS011;20720;48.886;9.388;2023-03-31T06:50:05;11.35;;;4.35;;
34481;SDS011;20720;48.886;9.388;2023-03-31T06:52:32;9.70;;;3.85;;
34481;SDS011;20720;48.886;9.388;2023-03-31T06:54:58;8.15;;;3.30;;
34481;SDS011;20720;48.886;9.388;2023-03-31T06:57:24;7.22;;;3.28;;
34481;SDS011;20720;48.886;9.388;2023-03-31T06:59:49;7.43;;;3.20;;
34481;SDS011;20720;48.886;9.388;2023-03-31T07:02:15;9.75;;;3.85;;
34481;SDS011;20720;48.886;9.388;2023-03-31T07:04:40;14.48;;;3.47;;
34481;SDS011;20720;48.886;9.388;2023-03-31T07:07:05;10.13;;;3.42;;
34481;SDS011;20720;48.886;9.388;2023-03-31T07:09:31;7.80;;;3.72;;
34481;SDS011;20720;48.886;9.388;2023-03-31T07:11:56;11.65;;;4.03;;
34481;SDS011;20720;48.886;9.388;2023-03-31T07:14:21;6.95;;;3.58;;
34481;SDS011;20720;48.886;9.388;2023-03-31T07:16:46;8.07;;;3.63;;
34481;SDS011;20720;48.886;9.388;2023-03-31T07:19:12;9.82;;;3.95;;
34481;SDS011;20720;48.886;9.388;2023-03-31T07:21:39;9.77;;;3.58;;
34481;SDS011;20720;48.886;9.388;2023-03-31T07:24:04;8.63;;;3.50;;
34481;SDS011;20720;48.886;9.388;2023-03-31T07:26:30;9.48;;;3.83;;
34481;SDS011;20720;48.886;9.388;2023-03-31T07:28:55;11.27;;;4.32;;
34481;SDS011;20720;48.886;9.388;2023-03-31T07:31:21;12.07;;;3.83;;
34481;SDS011;20720;48.886;9.388;2023-03-31T07:33:47;6.25;;;2.95;;
34481;SDS011;20720;48.886;9.388;2023-03-31T07:36:12;6.72;;;2.70;;
34481;SDS011;20720;48.886;9.388;2023-03-31T07:38:39;7.40;;;2.85;;
34481;SDS011;20720;48.886;9.388;2023-03-31T07:41:10;7.55;;;2.53;;
34481;SDS011;20720;48.886;9.388;2023-03-31T07:43:37;7.35;;;2.60;;
34481;SDS011;20720;48.886;9.388;2023-03-31T07:46:02;8.88;;;2.88;;
34481;SDS011;20720;48.886;9.388;2023-03-31T07:48:29;7.80;;;2.60;;
34481;SDS011;20720;48.886;9.388;2023-03-31T07:50:54;7.82;;;2.42;;
34481;SDS011;20720;48.886;9.388;2023-03-31T07:53:20;4.65;;;1.92;;
34481;SDS011;20720;48.886;9.388;2023-03-31T07:55:46;5.78;;;1.90;;
34481;SDS011;20720;48.886;9.388;2023-03-31T07:58:12;3.75;;;2.15;;
34481;SDS011;20720;48.886;9.388;2023-03-31T08:00:37;4.70;;;1.77;;
34481;SDS011;20720;48.886;9.388;2023-03-31T08:03:02;5.43;;;2.58;;
34481;SDS011;20720;48.886;9.388;2023-03-31T08:05:28;6.13;;;3.15;;
34481;SDS011;20720;48.886;9.388;2023-03-31T08:07:53;10.10;;;5.03;;
34481;SDS011;20720;48.886;9.388;2023-03-31T08:10:20;5.63;;;3.00;;
34481;SDS011;20720;48.886;9.388;2023-03-31T08:12:47;5.80;;;2.50;;
34481;SDS011;20720;48.886;9.388;2023-03-31T08:15:13;4.28;;;1.98;;
34481;SDS011;20720;48.886;9.388;2023-03-31T08:17:38;4.45;;;1.83;;
34481;SDS011;20720;48.886;9.388;2023-03-31T08:20:04;4.65;;;1.25;;
34481;SDS011;20720;48.886;9.388;2023-03-31T08:22:34;3.13;;;1.10;;
34481;SDS011;20720;48.886;9.388;2023-03-31T08:25:03;3.38;;;1.25;;
34481;SDS011;20720;48.886;9.388;2023-03-31T08:27:33;3.40;;;1.23;;
34481;SDS011;20720;48.886;9.388;2023-03-31T08:29:59;3.55;;;1.10;;
34481;SDS011;20720;48.886;9.388;2023-03-31T08:32:28;2.67;;;0.80;;
34481;SDS011;20720;48.886;9.388;2023-03-31T08:34:54;2.92;;;0.90;;
34481;SDS011;20720;48.886;9.388;2023-03-31T08:37:19;1.08;;;0.55;;
34481;SDS011;20720;48.886;9.388;2023-03-31T08:39:45;1.75;;;0.70;;
34481;SDS011;20720;48.886;9.388;2023-03-31T08:42:13;2.45;;;0.70;;
34481;SDS011;20720;48.886;9.388;2023-03-31T08:44:45;3.42;;;0.70;;
34481;SDS011;20720;48.886;9.388;2023-03-31T08:47:19;2.85;;;0.90;;
34481;SDS011;20720;48.886;9.388;2023-03-31T08:49:49;1.23;;;0.50;;
34481;SDS011;20720;48.886;9.388;2023-03-31T08:52:19;5.57;;;1.10;;
34481;SDS011;20720;48.886;9.388;2023-03-31T08:54:55;2.22;;;0.73;;
34481;SDS011;20720;48.886;9.388;2023-03-31T08:59:54;3.75;;;0.70;;
34481;SDS011;20720;48.886;9.388;2023-03-31T09:02:29;2.92;;;0.73;;
34481;SDS011;20720;48.886;9.388;2023-03-31T09:05:21;3.28;;;0.70;;
34481;SDS011;20720;48.886;9.388;2023-03-31T09:07:54;2.42;;;0.68;;
34481;SDS011;20720;48.886;9.388;2023-03-31T09:10:37;1.60;;;0.60;;
34481;SDS011;20720;48.886;9.388;2023-03-31T09:13:11;1.52;;;0.73;;
34481;SDS011;20720;48.886;9.388;2023-03-31T09:15:55;4.50;;;0.85;;
34481;SDS011;20720;48.886;9.388;2023-03-31T09:18:37;4.38;;;1.05;;
34481;SDS011;20720;48.886;9.388;2023-03-31T09:24:17;3.40;;;0.95;;
34481;SDS011;20720;48.886;9.388;2023-03-31T09:26:49;4.57;;;1.25;;
34481;SDS011;20720;48.886;9.388;2023-03-31T09:29:28;4.25;;;1.35;;
34481;SDS011;20720;48.886;9.388;2023-03-31T09:32:00;2.70;;;0.82;;
34481;SDS011;20720;48.886;9.388;2023-03-31T09:34:37;3.38;;;0.90;;
34481;SDS011;20720;48.886;9.388;2023-03-31T09:37:03;2.88;;;0.85;;
34481;SDS011;20720;48.886;9.388;2023-03-31T09:39:29;4.93;;;0.80;;
34481;SDS011;20720;48.886;9.388;2023-03-31T09:41:54;6.00;;;1.33;;
34481;SDS011;20720;48.886;9.388;2023-03-31T09:47:01;3.08;;;0.70;;
34481;SDS011;20720;48.886;9.388;2023-03-31T09:49:31;3.90;;;0.95;;
34481;SDS011;20720;48.886;9.388;2023-03-31T09:52:00;4.20;;;1.05;;
34481;SDS011;20720;48.886;9.388;2023-03-31T09:54:33;3.42;;;0.68;;
34481;SDS011;20720;48.886;9.388;2023-03-31T09:57:01;5.33;;;1.10;;
34481;SDS011;20720;48.886;9.388;2023-03-31T09:59:31;10.43;;;1.30;;
34481;SDS011;20720;48.886;9.388;2023-03-31T10:01:59;3.92;;;1.10;;
34481;SDS011;20720;48.886;9.388;2023-03-31T10:04:27;7.30;;;0.93;;
34481;SDS011;20720;48.886;9.388;2023-03-31T10:06:55;8.73;;;1.10;;
34481;SDS011;20720;48.886;9.388;2023-03-31T10:09:29;5.03;;;1.20;;
34481;SDS011;20720;48.886;9.388;2023-03-31T10:12:05;4.50;;;0.80;;
34481;SDS011;20720;48.886;9.388;2023-03-31T10:14:46;4.63;;;0.80;;
34481;SDS011;20720;48.886;9.388;2023-03-31T10:17:13;5.47;;;1.42;;
34481;SDS011;20720;48.886;9.388;2023-03-31T10:19:51;5.10;;;1.10;;
34481;SDS011;20720;48.886;9.388;2023-03-31T10:24:45;5.70;;;1.10;;
34481;SDS011;20720;48.886;9.388;2023-03-31T10:27:17;4.82;;;1.35;;
34481;SDS011;20720;48.886;9.388;2023-03-31T10:29:53;3.85;;;1.13;;
34481;SDS011;20720;48.886;9.388;2023-03-31T10:32:21;3.20;;;0.70;;
34481;SDS011;20720;48.886;9.388;2023-03-31T10:34:49;5.40;;;1.10;;
34481;SDS011;20720;48.886;9.388;2023-03-31T10:37:18;5.18;;;1.10;;
34481;SDS011;20720;48.886;9.388;2023-03-31T10:39:47;3.40;;;0.80;;
34481;SDS011;20720;48.886;9.388;2023-03-31T10:42:21;3.88;;;0.88;;
34481;SDS011;20720;48.886;9.388;2023-03-31T10:44:47;8.15;;;1.38;;
34481;SDS011;20720;48.886;9.388;2023-03-31T10:49:39;3.80;;;0.83;;
34481;SDS011;20720;48.886;9.388;2023-03-31T10:54:45;5.22;;;1.25;;
34481;SDS011;20720;48.886;9.388;2023-03-31T10:57:12;5.10;;;0.90;;
34481;SDS011;20720;48.886;9.388;2023-03-31T11:19:07;5.55;;;1.02;;
34481;SDS011;20720;48.886;9.388;2023-03-31T11:30:27;3.67;;;0.75;;
34481;SDS011;20720;48.886;9.388;2023-03-31T11:38:56;4.50;;;1.17;;
34481;SDS011;20720;48.886;9.388;2023-03-31T11:41:35;2.50;;;0.77;;
34481;SDS011;20720;48.886;9.388;2023-03-31T11:49:27;3.40;;;1.05;;
34481;SDS011;20720;48.886;9.388;2023-03-31T11:52:02;3.75;;;0.70;;
34481;SDS011;20720;48.886;9.388;2023-03-31T11:57:56;2.05;;;0.35;;
34481;SDS011;20720;48.886;9.388;2023-03-31T12:00:05;2.40;;;0.50;;
34481;SDS011;20720;48.886;9.388;2023-03-31T12:05:38;1.83;;;0.73;;
34481;SDS011;20720;48.886;9.388;2023-03-31T12:08:20;2.07;;;0.40;;
34481;SDS011;20720;48.886;9.388;2023-03-31T12:10:54;2.17;;;0.40;;
34481;SDS011;20720;48.886;9.388;2023-03-31T12:13:33;1.73;;;0.35;;
34481;SDS011;20720;48.886;9.388;2023-03-31T12:21:29;1.40;;;0.30;;
34481;SDS011;20720;48.886;9.388;2023-03-31T12:23:57;0.95;;;0.20;;
34481;SDS011;20720;48.886;9.388;2023-03-31T12:26:32;1.27;;;0.25;;
34481;SDS011;20720;48.886;9.388;2023-03-31T12:29:16;1.08;;;0.30;;
34481;SDS011;20720;48.886;9.388;2023-03-31T12:31:51;1.42;;;0.30;;
34481;SDS011;20720;48.886;9.388;2023-03-31T12:34:19;0.50;;;0.10;;
34481;SDS011;20720;48.886;9.388;2023-03-31T12:36:52;1.00;;;0.20;;
34481;SDS011;20720;48.886;9.388;2023-03-31T12:45:16;1.65;;;0.30;;
34481;SDS011;20720;48.886;9.388;2023-03-31T12:53:25;2.08;;;0.30;;
34481;SDS011;20720;48.886;9.388;2023-03-31T13:06:00;1.70;;;0.40;;
34481;SDS011;20720;48.886;9.388;2023-03-31T13:11:16;3.95;;;0.68;;
34481;SDS011;20720;48.886;9.388;2023-03-31T13:13:45;2.17;;;0.32;;
34481;SDS011;20720;48.886;9.388;2023-03-31T13:16:23;1.80;;;0.40;;
34481;SDS011;20720;48.886;9.388;2023-03-31T13:18:49;4.63;;;0.68;;
34481;SDS011;20720;48.886;9.388;2023-03-31T13:21:16;2.28;;;0.60;;
34481;SDS011;20720;48.886;9.388;2023-03-31T13:23:43;3.88;;;0.75;;
34481;SDS011;20720;48.886;9.388;2023-03-31T13:34:26;4.43;;;0.70;;
34481;SDS011;20720;48.886;9.388;2023-03-31T13:36:59;2.78;;;1.02;;
34481;SDS011;20720;48.886;9.388;2023-03-31T13:39:47;6.38;;;1.23;;
34481;SDS011;20720;48.886;9.388;2023-03-31T13:47:56;1.35;;;0.20;;
34481;SDS011;20720;48.886;9.388;2023-03-31T13:53:21;2.78;;;0.30;;
34481;SDS011;20720;48.886;9.388;2023-03-31T13:56:14;2.03;;;0.30;;
34481;SDS011;20720;48.886;9.388;2023-03-31T14:07:08;0.90;;;0.20;;
34481;SDS011;20720;48.886;9.388;2023-03-31T14:09:39;3.22;;;0.20;;
34481;SDS011;20720;48.886;9.388;2023-03-31T14:14:58;1.63;;;0.20;;
34481;SDS011;20720;48.886;9.388;2023-03-31T14:17:28;1.10;;;0.20;;
34481;SDS011;20720;48.886;9.388;2023-03-31T14:39:04;2.00;;;0.40;;
34481;SDS011;20720;48.886;9.388;2023-03-31T14:41:32;2.40;;;0.50;;
34481;SDS011;20720;48.886;9.388;2023-03-31T14:44:01;2.97;;;0.57;;
34481;SDS011;20720;48.886;9.388;2023-03-31T14:46:30;2.17;;;0.50;;
34481;SDS011;20720;48.886;9.388;2023-03-31T14:49:03;2.83;;;0.32;;
34481;SDS011;20720;48.886;9.388;2023-03-31T14:51:51;4.33;;;0.40;;
34481;SDS011;20720;48.886;9.388;2023-03-31T14:54:18;2.50;;;0.50;;
34481;SDS011;20720;48.886;9.388;2023-03-31T14:56:48;2.65;;;0.47;;
34481;SDS011;20720;48.886;9.388;2023-03-31T14:59:20;1.77;;;0.30;;
34481;SDS011;20720;48.886;9.388;2023-03-31T15:01:49;1.42;;;0.45;;
34481;SDS011;20720;48.886;9.388;2023-03-31T15:04:16;2.15;;;0.60;;
34481;SDS011;20720;48.886;9.388;2023-03-31T15:06:46;1.40;;;0.20;;
34481;SDS011;20720;48.886;9.388;2023-03-31T15:09:18;1.20;;;0.30;;
34481;SDS011;20720;48.886;9.388;2023-03-31T15:11:44;2.60;;;0.30;;
34481;SDS011;20720;48.886;9.388;2023-03-31T15:14:11;1.83;;;0.57;;
34481;SDS011;20720;48.886;9.388;2023-03-31T15:16:40;2.35;;;0.40;;
34481;SDS011;20720;48.886;9.388;2023-03-31T15:19:16;1.70;;;0.35;;
34481;SDS011;20720;48.886;9.388;2023-03-31T15:24:30;3.15;;;0.60;;
34481;SDS011;20720;48.886;9.388;2023-03-31T15:27:00;2.42;;;0.30;;
34481;SDS011;20720;48.886;9.388;2023-03-31T15:32:06;2.20;;;0.38;;
34481;SDS011;20720;48.886;9.388;2023-03-31T15:34:37;1.33;;;0.30;;
34481;SDS011;20720;48.886;9.388;2023-03-31T15:37:05;2.90;;;0.32;;
34481;SDS011;20720;48.886;9.388;2023-03-31T15:39:31;0.70;;;0.20;;
34481;SDS011;20720;48.886;9.388;2023-03-31T15:42:02;1.52;;;0.50;;
34481;SDS011;20720;48.886;9.388;2023-03-31T15:47:19;1.08;;;0.30;;
34481;SDS011;20720;48.886;9.388;2023-03-31T15:52:19;4.40;;;1.50;;
34481;SDS011;20720;48.886;9.388;2023-03-31T15:54:46;2.17;;;0.45;;
34481;SDS011;20720;48.886;9.388;2023-03-31T15:57:13;2.22;;;0.57;;
34481;SDS011;20720;48.886;9.388;2023-03-31T15:59:44;2.38;;;0.55;;
34481;SDS011;20720;48.886;9.388;2023-03-31T16:02:24;2.45;;;0.50;;
34481;SDS011;20720;48.886;9.388;2023-03-31T16:04:53;3.17;;;0.82;;
34481;SDS011;20720;48.886;9.388;2023-03-31T16:07:22;3.58;;;0.60;;
34481;SDS011;20720;48.886;9.388;2023-03-31T16:12:47;1.65;;;0.38;;
34481;SDS011;20720;48.886;9.388;2023-03-31T16:15:20;3.75;;;0.57;;
34481;SDS011;20720;48.886;9.388;2023-03-31T16:18:02;1.63;;;0.30;;
34481;SDS011;20720;48.886;9.388;2023-03-31T16:20:34;2.15;;;0.43;;
34481;SDS011;20720;48.886;9.388;2023-03-31T16:23:11;2.75;;;0.50;;
34481;SDS011;20720;48.886;9.388;2023-03-31T16:25:39;5.20;;;0.40;;
34481;SDS011;20720;48.886;9.388;2023-03-31T16:28:05;4.10;;;0.68;;
34481;SDS011;20720;48.886;9.388;2023-03-31T16:30:35;2.05;;;0.40;;
34481;SDS011;20720;48.886;9.388;2023-03-31T16:33:06;4.03;;;0.70;;
34481;SDS011;20720;48.886;9.388;2023-03-31T16:35:37;2.47;;;0.50;;
34481;SDS011;20720;48.886;9.388;2023-03-31T16:38:08;4.45;;;0.80;;
34481;SDS011;20720;48.886;9.388;2023-03-31T16:40:36;1.45;;;0.50;;
34481;SDS011;20720;48.886;9.388;2023-03-31T16:43:13;2.83;;;0.60;;
34481;SDS011;20720;48.886;9.388;2023-03-31T16:45:53;2.95;;;0.60;;
34481;SDS011;20720;48.886;9.388;2023-03-31T16:48:21;2.45;;;0.50;;
34481;SDS011;20720;48.886;9.388;2023-03-31T16:50:48;3.92;;;0.50;;
34481;SDS011;20720;48.886;9.388;2023-03-31T16:53:22;3.67;;;0.68;;
34481;SDS011;20720;48.886;9.388;2023-03-31T16:55:50;3.17;;;0.57;;
34481;SDS011;20720;48.886;9.388;2023-03-31T16:58:16;1.52;;;0.35;;
34481;SDS011;20720;48.886;9.388;2023-03-31T17:00:41;0.88;;;0.32;;
34481;SDS011;20720;48.886;9.388;2023-03-31T17:03:08;1.25;;;0.30;;
34481;SDS011;20720;48.886;9.388;2023-03-31T17:05:41;2.00;;;0.30;;
34481;SDS011;20720;48.886;9.388;2023-03-31T17:08:09;1.75;;;0.40;;
34481;SDS011;20720;48.886;9.388;2023-03-31T17:10:36;1.08;;;0.30;;
34481;SDS011;20720;48.886;9.388;2023-03-31T17:13:02;1.65;;;0.40;;
34481;SDS011;20720;48.886;9.388;2023-03-31T17:15:27;1.20;;;0.20;;
34481;SDS011;20720;48.886;9.388;2023-03-31T17:17:56;4.35;;;0.43;;
34481;SDS011;20720;48.886;9.388;2023-03-31T17:20:23;3.35;;;0.50;;
34481;SDS011;20720;48.886;9.388;2023-03-31T17:22:49;1.73;;;0.52;;
34481;SDS011;20720;48.886;9.388;2023-03-31T17:25:14;3.03;;;0.50;;
34481;SDS011;20720;48.886;9.388;2023-03-31T17:27:40;1.48;;;0.28;;
34481;SDS011;20720;48.886;9.388;2023-03-31T17:30:05;1.13;;;0.30;;
34481;SDS011;20720;48.886;9.388;2023-03-31T17:32:32;2.10;;;0.52;;
34481;SDS011;20720;48.886;9.388;2023-03-31T17:34:58;1.38;;;0.32;;
34481;SDS011;20720;48.886;9.388;2023-03-31T17:37:23;1.45;;;0.20;;
34481;SDS011;20720;48.886;9.388;2023-03-31T17:39:48;3.28;;;0.50;;
34481;SDS011;20720;48.886;9.388;2023-03-31T17:42:15;0.80;;;0.20;;
34481;SDS011;20720;48.886;9.388;2023-03-31T17:44:40;1.80;;;0.40;;
34481;SDS011;20720;48.886;9.388;2023-03-31T17:47:06;2.50;;;0.40;;
34481;SDS011;20720;48.886;9.388;2023-03-31T17:49:32;2.38;;;0.40;;
34481;SDS011;20720;48.886;9.388;2023-03-31T17:51:58;2.10;;;0.40;;
34481;SDS011;20720;48.886;9.388;2023-03-31T17:54:24;2.15;;;0.30;;
34481;SDS011;20720;48.886;9.388;2023-03-31T17:56:50;2.15;;;0.30;;
34481;SDS011;20720;48.886;9.388;2023-03-31T17:59:17;1.10;;;0.20;;
34481;SDS011;20720;48.886;9.388;2023-03-31T18:01:44;1.58;;;0.38;;
34481;SDS011;20720;48.886;9.388;2023-03-31T18:04:11;1.60;;;0.40;;
34481;SDS011;20720;48.886;9.388;2023-03-31T18:06:37;6.35;;;0.77;;
34481;SDS011;20720;48.886;9.388;2023-03-31T18:09:02;2.92;;;0.50;;
34481;SDS011;20720;48.886;9.388;2023-03-31T18:11:29;1.90;;;0.32;;
34481;SDS011;20720;48.886;9.388;2023-03-31T18:13:55;1.23;;;0.40;;
34481;SDS011;20720;48.886;9.388;2023-03-31T18:16:21;3.70;;;0.50;;